createdAt,value
2019-03-31T00:00:47.482Z,18.20
2019-03-31T00:03:16.176Z,20.10
2019-03-31T00:05:44.856Z,19.13
2019-03-31T00:08:13.543Z,18.33
2019-03-31T00:10:42.230Z,20.13
2019-03-31T00:13:10.917Z,19.53
2019-03-31T00:15:39.603Z,19.40
2019-03-31T00:18:08.288Z,19.70
2019-03-31T00:20:36.958Z,20.17
2019-03-31T00:23:05.710Z,21.37
2019-03-31T00:25:34.390Z,25.67
2019-03-31T00:28:03.123Z,22.77
2019-03-31T00:30:31.808Z,22.27
2019-03-31T00:33:00.562Z,20.90
2019-03-31T00:35:29.270Z,19.70
2019-03-31T00:37:57.901Z,23.03
2019-03-31T00:40:26.567Z,19.73
2019-03-31T00:42:55.247Z,21.93
2019-03-31T00:45:24.038Z,23.33
2019-03-31T00:47:52.722Z,21.83
2019-03-31T00:50:21.459Z,30.87
2019-03-31T00:52:50.132Z,21.53
2019-03-31T00:55:18.939Z,21.07
2019-03-31T00:57:47.622Z,25.43
2019-03-31T01:00:19.671Z,21.73
2019-03-31T01:02:48.478Z,20.63
2019-03-31T01:05:17.256Z,20.37
2019-03-31T01:07:46.244Z,21.10
2019-03-31T01:10:15.236Z,20.53
2019-03-31T01:12:44.526Z,20.50
2019-03-31T01:15:15.982Z,19.70
2019-03-31T01:17:44.651Z,20.20
2019-03-31T01:20:13.633Z,25.67
2019-03-31T01:22:42.319Z,20.57
2019-03-31T01:25:11.486Z,22.30
2019-03-31T01:27:40.201Z,21.63
2019-03-31T01:30:10.845Z,20.43
2019-03-31T01:32:39.831Z,20.10
2019-03-31T01:35:10.418Z,18.40
2019-03-31T01:37:39.306Z,23.10
2019-03-31T01:40:08.587Z,21.93
2019-03-31T01:42:37.346Z,23.00
2019-03-31T01:45:07.737Z,21.97
2019-03-31T01:47:36.464Z,23.17
2019-03-31T01:50:08.657Z,20.60
2019-03-31T01:52:37.670Z,20.50
2019-03-31T01:55:08.551Z,19.57
2019-03-31T01:57:37.232Z,19.57
2019-03-31T02:00:11.650Z,22.07
2019-03-31T02:02:40.347Z,21.53
2019-03-31T02:05:09.129Z,27.00
2019-03-31T02:07:37.824Z,22.10
2019-03-31T02:10:07.396Z,21.43
2019-03-31T02:12:36.250Z,20.50
2019-03-31T02:15:07.022Z,20.80
2019-03-31T02:17:35.714Z,22.80
2019-03-31T02:20:06.307Z,21.53
2019-03-31T02:22:35.030Z,18.97
2019-03-31T02:25:04.001Z,20.60
2019-03-31T02:27:32.758Z,19.53
2019-03-31T02:30:01.495Z,20.00
2019-03-31T02:32:30.183Z,21.20
2019-03-31T02:34:58.864Z,25.93
2019-03-31T02:37:27.542Z,20.67
2019-03-31T02:39:56.212Z,24.80
2019-03-31T02:42:24.993Z,26.07
2019-03-31T02:44:53.682Z,23.73
2019-03-31T02:47:22.474Z,23.00
2019-03-31T02:49:51.195Z,21.20
2019-03-31T02:52:20.190Z,23.23
2019-03-31T02:54:48.846Z,23.10
2019-03-31T02:57:19.065Z,20.60
2019-03-31T02:59:49.379Z,25.20
2019-03-31T03:02:18.991Z,22.07
2019-03-31T03:04:49.459Z,22.13
2019-03-31T03:07:18.746Z,22.40
2019-03-31T03:09:49.636Z,22.93
2019-03-31T03:12:19.418Z,23.67
2019-03-31T03:14:50.170Z,21.27
2019-03-31T03:17:18.852Z,25.43
2019-03-31T03:19:47.526Z,20.17
2019-03-31T03:22:16.312Z,21.73
2019-03-31T03:24:44.972Z,23.40
2019-03-31T03:27:13.658Z,22.27
2019-03-31T03:29:42.366Z,22.87
2019-03-31T03:32:11.089Z,19.63
2019-03-31T03:34:39.802Z,23.80
2019-03-31T03:37:08.480Z,25.53
2019-03-31T03:39:37.200Z,24.67
2019-03-31T03:42:05.942Z,24.57
2019-03-31T03:44:34.621Z,25.97
2019-03-31T03:47:03.269Z,33.10
2019-03-31T03:49:31.964Z,31.17
2019-03-31T03:52:00.883Z,31.13
2019-03-31T03:54:29.535Z,27.93
2019-03-31T03:56:58.220Z,27.97
2019-03-31T03:59:26.904Z,27.77
2019-03-31T04:01:55.599Z,26.33
2019-03-31T04:04:24.293Z,26.33
2019-03-31T04:06:52.965Z,28.07
2019-03-31T04:09:23.877Z,31.60
2019-03-31T04:11:52.545Z,29.23
2019-03-31T04:14:21.228Z,25.70
2019-03-31T04:16:49.911Z,24.83
2019-03-31T04:19:18.580Z,25.93
2019-03-31T04:21:47.418Z,26.30
2019-03-31T04:24:16.104Z,25.30
2019-03-31T04:26:44.765Z,23.90
2019-03-31T04:29:13.459Z,24.73
2019-03-31T04:31:42.125Z,26.20
2019-03-31T04:34:10.822Z,29.47
2019-03-31T04:36:39.497Z,26.03
2019-03-31T04:39:08.936Z,25.53
2019-03-31T04:41:37.596Z,28.33
2019-03-31T04:44:06.309Z,31.10
2019-03-31T04:46:34.951Z,28.70
2019-03-31T04:49:03.636Z,24.47
2019-03-31T04:51:32.317Z,24.17
2019-03-31T04:54:01.033Z,25.13
2019-03-31T04:56:29.695Z,26.40
2019-03-31T04:58:58.371Z,25.33
2019-03-31T05:01:27.072Z,29.73
2019-03-31T05:04:04.401Z,27.13
2019-03-31T05:06:26.173Z,23.17
2019-03-31T05:08:54.855Z,24.43
2019-03-31T05:11:23.584Z,26.83
2019-03-31T05:13:52.268Z,23.93
2019-03-31T05:16:20.957Z,23.63
2019-03-31T05:18:49.643Z,23.77
2019-03-31T05:21:18.321Z,29.97
2019-03-31T05:23:47.006Z,24.53
2019-03-31T05:26:15.694Z,22.73
2019-03-31T05:28:44.424Z,20.80
2019-03-31T05:31:13.067Z,24.87
2019-03-31T05:33:41.743Z,27.20
2019-03-31T05:36:10.420Z,25.07
2019-03-31T05:38:39.103Z,20.50
2019-03-31T05:41:07.768Z,21.70
2019-03-31T05:43:36.441Z,23.00
2019-03-31T05:46:06.011Z,20.87
2019-03-31T05:48:34.698Z,21.93
2019-03-31T05:51:03.410Z,23.17
2019-03-31T05:53:32.093Z,22.63
2019-03-31T05:56:00.780Z,20.47
2019-03-31T05:58:29.469Z,20.57
2019-03-31T06:00:58.149Z,21.07
2019-03-31T06:03:26.923Z,19.33
2019-03-31T06:05:55.670Z,19.97
2019-03-31T06:08:24.360Z,22.97
2019-03-31T06:10:53.049Z,18.97
2019-03-31T06:13:21.735Z,19.77
2019-03-31T06:15:50.419Z,20.90
2019-03-31T06:18:19.152Z,20.17
2019-03-31T06:20:47.834Z,18.83
2019-03-31T06:23:18.650Z,17.07
2019-03-31T06:25:47.059Z,20.97
2019-03-31T06:28:15.740Z,20.00
2019-03-31T06:30:44.427Z,18.53
2019-03-31T06:33:13.109Z,20.20
2019-03-31T06:35:41.800Z,20.03
2019-03-31T06:38:10.484Z,20.47
2019-03-31T06:40:40.066Z,16.00
2019-03-31T06:43:08.816Z,15.93
2019-03-31T06:45:37.498Z,15.93
2019-03-31T06:48:06.186Z,15.73
2019-03-31T06:50:34.870Z,15.70
2019-03-31T06:53:04.421Z,15.53
2019-03-31T06:55:33.182Z,14.27
2019-03-31T06:58:01.852Z,15.20
2019-03-31T07:00:30.540Z,14.07
2019-03-31T07:02:59.227Z,13.83
2019-03-31T07:05:27.910Z,13.23
2019-03-31T07:07:56.635Z,14.50
2019-03-31T07:10:25.357Z,13.83
2019-03-31T07:12:54.123Z,15.20
2019-03-31T07:15:22.831Z,14.30
2019-03-31T07:17:51.496Z,13.80
2019-03-31T07:20:20.227Z,15.70
2019-03-31T07:22:48.936Z,13.87
2019-03-31T07:25:20.214Z,15.27
2019-03-31T07:27:48.971Z,16.87
2019-03-31T07:30:19.958Z,15.70
2019-03-31T07:32:48.644Z,18.97
2019-03-31T07:35:19.029Z,15.97
2019-03-31T07:37:47.980Z,15.03
2019-03-31T07:40:22.668Z,12.93
2019-03-31T07:42:51.575Z,14.87
2019-03-31T07:45:20.567Z,14.23
2019-03-31T07:47:49.286Z,14.90
2019-03-31T07:50:18.965Z,12.87
2019-03-31T07:52:47.658Z,12.17
2019-03-31T07:55:17.242Z,11.43
2019-03-31T07:57:46.030Z,11.83
2019-03-31T08:00:20.917Z,12.97
2019-03-31T08:02:49.705Z,12.67
2019-03-31T08:05:32.088Z,12.97
2019-03-31T08:07:49.207Z,12.57
2019-03-31T08:10:18.681Z,13.47
2019-03-31T08:12:47.369Z,11.97
2019-03-31T08:15:16.952Z,13.57
2019-03-31T08:17:45.659Z,11.93
2019-03-31T08:20:16.454Z,11.53
2019-03-31T08:22:45.136Z,11.77
2019-03-31T08:25:16.018Z,12.70
2019-03-31T08:27:44.739Z,12.45
2019-03-31T08:30:15.568Z,12.03
2019-03-31T08:32:44.319Z,12.40
2019-03-31T08:35:13.402Z,11.97
2019-03-31T08:37:45.105Z,11.65
2019-03-31T08:40:14.543Z,12.73
2019-03-31T08:42:43.253Z,11.65
2019-03-31T08:45:12.549Z,11.57
2019-03-31T08:47:41.338Z,12.78
2019-03-31T08:50:12.851Z,10.95
2019-03-31T08:52:41.538Z,10.65
2019-03-31T08:55:11.361Z,13.40
2019-03-31T08:57:40.043Z,11.53
2019-03-31T09:00:12.409Z,14.35
2019-03-31T09:02:41.133Z,10.68
2019-03-31T09:05:10.393Z,10.35
2019-03-31T09:07:41.890Z,13.05
2019-03-31T09:10:10.815Z,10.78
2019-03-31T09:12:39.592Z,10.75
2019-03-31T09:15:10.365Z,11.28
2019-03-31T09:17:39.316Z,12.40
2019-03-31T09:20:09.034Z,10.88
2019-03-31T09:22:37.713Z,11.08
2019-03-31T09:25:11.020Z,12.93
2019-03-31T09:27:39.717Z,11.83
2019-03-31T09:30:10.959Z,11.08
2019-03-31T09:32:39.629Z,9.80
2019-03-31T09:35:09.311Z,10.55
2019-03-31T09:37:38.008Z,10.05
2019-03-31T09:40:08.757Z,10.18
2019-03-31T09:42:37.545Z,12.70
2019-03-31T09:45:08.620Z,11.85
2019-03-31T09:47:38.597Z,11.18
2019-03-31T09:50:12.488Z,13.40
2019-03-31T09:52:41.308Z,12.78
2019-03-31T09:55:10.974Z,14.63
2019-03-31T09:57:39.655Z,12.98
2019-03-31T10:00:14.273Z,11.00
2019-03-31T10:02:42.949Z,11.35
2019-03-31T10:05:12.347Z,10.38
2019-03-31T10:07:41.125Z,10.10
2019-03-31T10:10:11.979Z,10.95
2019-03-31T10:12:40.682Z,10.93
2019-03-31T10:15:09.607Z,10.68
2019-03-31T10:17:38.289Z,9.15
2019-03-31T10:20:07.064Z,8.73
2019-03-31T10:22:35.739Z,8.93
2019-03-31T10:25:06.810Z,9.88
2019-03-31T10:27:35.544Z,9.33
2019-03-31T10:30:06.359Z,10.10
2019-03-31T10:32:35.028Z,8.65
2019-03-31T10:35:04.595Z,8.58
2019-03-31T10:37:33.261Z,8.78
2019-03-31T10:40:02.003Z,10.48
2019-03-31T10:42:30.687Z,10.48
2019-03-31T10:44:59.362Z,9.33
2019-03-31T10:47:28.070Z,8.40
2019-03-31T10:49:56.732Z,9.08
2019-03-31T10:52:25.513Z,12.25
2019-03-31T10:54:54.206Z,8.08
2019-03-31T10:57:22.893Z,8.13
2019-03-31T10:59:51.579Z,8.20
2019-03-31T11:02:20.264Z,8.13
2019-03-31T11:04:48.966Z,7.87
2019-03-31T11:07:17.638Z,7.83
2019-03-31T11:09:46.338Z,7.62
2019-03-31T11:12:16.057Z,8.48
2019-03-31T11:14:44.756Z,8.60
2019-03-31T11:17:13.419Z,9.45
2019-03-31T11:19:42.103Z,8.85
2019-03-31T11:22:15.328Z,7.45
2019-03-31T11:24:43.988Z,8.80
2019-03-31T11:27:12.693Z,10.90
2019-03-31T11:29:41.381Z,11.28
2019-03-31T11:32:10.059Z,9.78
2019-03-31T11:34:38.727Z,9.00
2019-03-31T11:37:13.372Z,9.20
2019-03-31T11:39:37.838Z,8.78
2019-03-31T11:42:06.523Z,10.18
2019-03-31T11:44:35.205Z,9.85
2019-03-31T11:47:03.898Z,10.85
2019-03-31T11:49:32.583Z,11.33
2019-03-31T11:52:01.257Z,13.62
2019-03-31T11:54:29.948Z,9.93
2019-03-31T11:56:58.650Z,12.10
2019-03-31T11:59:27.343Z,11.35
2019-03-31T12:01:56.029Z,10.25
2019-03-31T12:04:24.710Z,13.30
2019-03-31T12:06:53.429Z,11.22
2019-03-31T12:09:22.174Z,12.05
2019-03-31T12:11:50.907Z,10.65
2019-03-31T12:14:19.586Z,12.75
2019-03-31T12:16:48.270Z,11.93
2019-03-31T12:19:16.964Z,11.55
2019-03-31T12:21:45.749Z,12.33
2019-03-31T12:24:14.432Z,10.23
2019-03-31T12:26:43.118Z,9.45
2019-03-31T12:29:11.834Z,8.05
2019-03-31T12:31:40.576Z,9.28
2019-03-31T12:34:09.258Z,7.58
2019-03-31T12:36:37.934Z,8.95
2019-03-31T12:39:08.910Z,6.62
2019-03-31T12:41:37.584Z,7.40
2019-03-31T12:44:06.269Z,6.85
2019-03-31T12:46:34.938Z,6.80
2019-03-31T12:49:03.602Z,7.60
2019-03-31T12:51:32.361Z,6.25
2019-03-31T12:54:01.052Z,7.12
2019-03-31T12:56:29.731Z,7.90
2019-03-31T12:58:58.402Z,6.40
2019-03-31T13:01:27.088Z,6.65
2019-03-31T13:03:55.810Z,7.03
2019-03-31T13:06:24.473Z,9.40
2019-03-31T13:08:53.171Z,9.18
2019-03-31T13:11:21.812Z,6.87
2019-03-31T13:13:50.495Z,6.25
2019-03-31T13:16:19.180Z,6.47
2019-03-31T13:18:47.870Z,8.10
2019-03-31T13:21:16.542Z,8.95
2019-03-31T13:23:45.248Z,8.05
2019-03-31T13:26:13.928Z,7.90
2019-03-31T13:28:42.611Z,7.50
2019-03-31T13:31:11.283Z,7.58
2019-03-31T13:33:39.986Z,11.12
2019-03-31T13:36:08.682Z,7.92
2019-03-31T13:38:37.350Z,8.43
2019-03-31T13:41:06.015Z,11.50
2019-03-31T13:43:34.729Z,12.35
2019-03-31T13:46:03.384Z,7.97
2019-03-31T13:48:32.064Z,8.83
2019-03-31T13:51:00.747Z,9.48
2019-03-31T13:53:29.424Z,9.78
2019-03-31T13:55:58.105Z,8.93
2019-03-31T13:58:28.692Z,9.25
2019-03-31T14:00:57.538Z,13.15
2019-03-31T14:03:26.269Z,10.03
2019-03-31T14:05:54.957Z,8.88
2019-03-31T14:08:25.869Z,8.98
2019-03-31T14:10:54.050Z,9.48
2019-03-31T14:13:22.717Z,8.00
2019-03-31T14:15:51.404Z,7.40
2019-03-31T14:18:20.095Z,8.78
2019-03-31T14:20:48.765Z,8.13
2019-03-31T14:23:17.451Z,9.95
2019-03-31T14:25:46.123Z,9.78
2019-03-31T14:28:14.800Z,9.55
2019-03-31T14:30:43.523Z,7.62
2019-03-31T14:33:12.167Z,7.83
2019-03-31T14:35:40.889Z,11.43
2019-03-31T14:38:09.576Z,10.15
2019-03-31T14:40:38.293Z,10.43
2019-03-31T14:43:06.970Z,9.08
2019-03-31T14:45:36.296Z,10.63
2019-03-31T14:48:05.317Z,8.40
2019-03-31T14:50:35.613Z,12.03
2019-03-31T14:53:05.092Z,8.83
2019-03-31T14:55:33.883Z,9.25
2019-03-31T14:58:02.586Z,9.48
2019-03-31T15:00:31.364Z,8.63
2019-03-31T15:03:00.071Z,8.23
2019-03-31T15:05:28.726Z,9.77
2019-03-31T15:07:58.713Z,9.87
2019-03-31T15:10:27.661Z,9.43
2019-03-31T15:12:56.359Z,8.63
2019-03-31T15:15:25.041Z,9.43
2019-03-31T15:17:53.752Z,11.23
2019-03-31T15:20:22.417Z,8.90
2019-03-31T15:22:51.533Z,10.40
2019-03-31T15:25:20.465Z,9.77
2019-03-31T15:27:49.173Z,9.90
2019-03-31T15:30:18.916Z,16.60
2019-03-31T15:32:47.593Z,10.87
2019-03-31T15:35:16.761Z,13.63
2019-03-31T15:37:45.450Z,11.07
2019-03-31T15:40:14.119Z,8.80
2019-03-31T15:42:42.808Z,12.03
2019-03-31T15:45:11.912Z,12.73
2019-03-31T15:47:40.717Z,11.23
2019-03-31T15:50:09.795Z,9.53
2019-03-31T15:52:38.484Z,10.17
2019-03-31T15:55:07.927Z,14.33
2019-03-31T15:57:36.614Z,12.53
2019-03-31T16:00:07.359Z,10.80
2019-03-31T16:02:36.041Z,10.90
2019-03-31T16:05:07.384Z,12.23
2019-03-31T16:07:36.054Z,12.13
2019-03-31T16:10:06.742Z,14.13
2019-03-31T16:12:35.489Z,12.07
2019-03-31T16:15:06.006Z,14.13
2019-03-31T16:17:34.712Z,11.63
2019-03-31T16:20:03.411Z,14.27
2019-03-31T16:22:32.084Z,11.77
2019-03-31T16:25:17.349Z,13.30
2019-03-31T16:27:46.033Z,11.80
2019-03-31T16:30:15.416Z,13.40
2019-03-31T16:32:44.105Z,14.03
2019-03-31T16:35:12.765Z,11.13
2019-03-31T16:37:41.452Z,12.43
2019-03-31T16:40:10.239Z,13.23
2019-03-31T16:42:39.027Z,14.37
2019-03-31T16:45:10.785Z,11.83
2019-03-31T16:47:39.464Z,12.97
2019-03-31T16:50:08.654Z,12.13
2019-03-31T16:52:37.379Z,13.47
2019-03-31T16:55:06.325Z,14.00
2019-03-31T16:57:35.016Z,11.43
2019-03-31T17:00:04.196Z,14.47
2019-03-31T17:02:32.868Z,11.97
2019-03-31T17:05:01.564Z,11.70
2019-03-31T17:07:30.242Z,10.43
2019-03-31T17:09:58.933Z,14.17
2019-03-31T17:12:27.615Z,12.80
2019-03-31T17:14:56.302Z,13.70
2019-03-31T17:17:24.982Z,14.53
2019-03-31T17:19:53.667Z,11.30
2019-03-31T17:22:22.365Z,15.63
2019-03-31T17:24:51.095Z,15.10
2019-03-31T17:27:19.831Z,16.30
2019-03-31T17:29:48.508Z,21.23
2019-03-31T17:32:17.307Z,18.63
2019-03-31T17:34:45.997Z,21.40
2019-03-31T17:37:14.687Z,15.67
2019-03-31T17:39:43.574Z,26.53
2019-03-31T17:42:12.251Z,20.30
2019-03-31T17:44:40.919Z,22.63
2019-03-31T17:47:09.608Z,18.53
2019-03-31T17:49:38.376Z,20.30
2019-03-31T17:52:07.049Z,22.23
2019-03-31T17:54:35.731Z,21.77
2019-03-31T17:57:04.515Z,25.63
2019-03-31T17:59:33.175Z,17.83
2019-03-31T18:02:01.851Z,21.00
2019-03-31T18:04:30.627Z,18.50
2019-03-31T18:06:59.311Z,18.10
2019-03-31T18:09:28.003Z,27.23
2019-03-31T18:11:56.724Z,29.63
2019-03-31T18:14:25.399Z,29.73
2019-03-31T18:16:54.073Z,24.70
2019-03-31T18:19:22.756Z,22.87
2019-03-31T18:21:51.440Z,17.83
2019-03-31T18:24:20.124Z,16.70
2019-03-31T18:26:48.808Z,19.47
2019-03-31T18:29:17.518Z,16.97
2019-03-31T18:31:46.203Z,19.20
2019-03-31T18:34:14.882Z,18.43
2019-03-31T18:36:43.552Z,19.50
2019-03-31T18:39:12.239Z,19.87
2019-03-31T18:41:40.924Z,20.37
2019-03-31T18:44:09.657Z,18.47
2019-03-31T18:46:38.355Z,17.50
2019-03-31T18:49:07.042Z,20.40
2019-03-31T18:51:35.751Z,18.90
2019-03-31T18:54:06.031Z,16.67
2019-03-31T18:56:42.339Z,18.27
2019-03-31T18:59:12.646Z,18.20
2019-03-31T19:01:42.890Z,22.37
2019-03-31T19:04:29.156Z,20.27
2019-03-31T19:06:59.505Z,18.00
2019-03-31T19:09:46.017Z,17.70
2019-03-31T19:12:16.272Z,19.57
2019-03-31T19:15:01.600Z,23.17
2019-03-31T19:17:49.456Z,26.00
2019-03-31T19:20:22.999Z,31.60
2019-03-31T19:22:53.230Z,24.30
2019-03-31T19:25:29.496Z,32.60
2019-03-31T19:27:59.744Z,33.10
2019-03-31T19:30:46.486Z,33.27
2019-03-31T19:33:32.003Z,37.90
2019-03-31T19:36:11.573Z,33.87
2019-03-31T19:38:58.277Z,31.30
2019-03-31T19:41:28.519Z,31.57
2019-03-31T19:43:58.763Z,29.03
2019-03-31T19:46:35.347Z,29.03
2019-03-31T19:49:05.585Z,20.73
2019-03-31T19:51:51.216Z,22.77
2019-03-31T19:54:24.247Z,21.50
2019-03-31T19:56:57.520Z,21.27
2019-03-31T19:59:36.722Z,22.87
2019-03-31T20:02:16.499Z,23.37
2019-03-31T20:04:52.522Z,21.63
2019-03-31T20:07:40.800Z,23.27
2019-03-31T20:10:23.554Z,22.37
2019-03-31T20:12:59.480Z,26.10
2019-03-31T20:15:45.717Z,25.63
2019-03-31T20:18:15.956Z,22.43
2019-03-31T20:20:48.913Z,21.07
2019-03-31T20:23:21.991Z,22.70
2019-03-31T20:26:01.010Z,24.80
2019-03-31T20:28:33.923Z,21.27
2019-03-31T20:31:20.137Z,23.00
2019-03-31T20:34:06.611Z,22.73
2019-03-31T20:36:53.082Z,21.90
2019-03-31T20:39:25.906Z,23.00
2019-03-31T20:41:59.030Z,23.17
2019-03-31T20:44:27.712Z,21.67
2019-03-31T20:46:56.390Z,20.63
2019-03-31T20:49:25.075Z,25.97
2019-03-31T20:51:53.818Z,18.07
2019-03-31T20:54:22.622Z,20.20
2019-03-31T20:56:51.289Z,17.10
2019-03-31T20:59:19.984Z,20.07
2019-03-31T21:01:48.677Z,18.87
2019-03-31T21:04:17.342Z,20.37
2019-03-31T21:06:46.045Z,24.03
2019-03-31T21:09:14.710Z,17.30
2019-03-31T21:11:43.498Z,17.10
2019-03-31T21:14:12.319Z,16.97
2019-03-31T21:16:40.982Z,16.50
2019-03-31T21:19:09.652Z,16.03
2019-03-31T21:21:38.341Z,15.70
2019-03-31T21:24:07.026Z,20.07
2019-03-31T21:26:35.722Z,15.30
2019-03-31T21:29:04.400Z,17.20
2019-03-31T21:31:33.091Z,15.67
2019-03-31T21:34:01.757Z,16.23
2019-03-31T21:36:30.442Z,17.13
2019-03-31T21:38:59.122Z,17.80
2019-03-31T21:41:27.826Z,19.90
2019-03-31T21:43:56.470Z,15.73
2019-03-31T21:46:25.144Z,19.47
2019-03-31T21:48:53.827Z,17.27
2019-03-31T21:51:22.532Z,20.23
2019-03-31T21:53:51.207Z,19.73
2019-03-31T21:56:19.988Z,19.17
2019-03-31T21:58:48.843Z,20.67
2019-03-31T22:01:17.888Z,16.60
2019-03-31T22:03:46.969Z,17.83
2019-03-31T22:06:15.751Z,16.83
2019-03-31T22:08:44.425Z,17.53
2019-03-31T22:11:13.116Z,18.60
2019-03-31T22:13:41.781Z,18.43
2019-03-31T22:16:10.509Z,19.60
2019-03-31T22:18:39.198Z,21.83
2019-03-31T22:21:07.858Z,18.67
2019-03-31T22:23:36.564Z,19.70
2019-03-31T22:26:05.332Z,18.87
2019-03-31T22:28:34.084Z,17.50
2019-03-31T22:31:02.919Z,17.43
2019-03-31T22:33:31.592Z,18.77
2019-03-31T22:36:17.652Z,19.03
2019-03-31T22:38:46.327Z,22.10
2019-03-31T22:41:15.001Z,19.27
2019-03-31T22:43:43.754Z,16.23
2019-03-31T22:46:12.436Z,19.83
2019-03-31T22:48:41.149Z,17.77
2019-03-31T22:51:10.241Z,18.27
2019-03-31T22:53:39.539Z,21.97
2019-03-31T22:56:08.219Z,21.97
2019-03-31T22:58:36.892Z,16.13
2019-03-31T23:01:05.597Z,20.33
2019-03-31T23:03:34.296Z,19.90
2019-03-31T23:06:03.107Z,20.10
2019-03-31T23:08:31.803Z,20.27
2019-03-31T23:11:00.504Z,21.30
2019-03-31T23:13:29.176Z,19.50
2019-03-31T23:15:57.851Z,16.97
2019-03-31T23:18:26.546Z,17.57
2019-03-31T23:20:55.217Z,18.00
2019-03-31T23:23:23.897Z,19.47
2019-03-31T23:25:52.613Z,16.30
2019-03-31T23:28:21.300Z,17.50
2019-03-31T23:30:49.982Z,18.33
2019-03-31T23:33:18.644Z,19.70
2019-03-31T23:35:47.332Z,19.13
2019-03-31T23:38:16.018Z,22.23
2019-03-31T23:40:44.686Z,23.50
2019-03-31T23:43:13.384Z,23.87
2019-03-31T23:45:42.062Z,32.90
2019-03-31T23:48:10.737Z,25.37
2019-03-31T23:50:39.412Z,27.17
2019-03-31T23:53:08.136Z,23.93
2019-03-31T23:55:36.817Z,27.03
2019-03-31T23:58:05.507Z,28.23
